Terminal Aerodrome Forecast
Issued by NWS

Current Version | Previous Version | Text Only | Print | Product List | Glossary Off
Versions: 1 2 3 4 5 6 7 8 9 10 11 12 13 14 15 16 17 18 19 20 21 22 23 24

000
FTUS41 KPBZ 201800 AAA
TAFMGW
TAF AMD
KMGW 201838Z 2019/2118 VRB03KT P6SM SCT040 BKN100
     FM210200 23004KT P6SM SCT040
     FM210700 VRB03KT 5SM BR SCT040=

USA.gov is the U.S. government's official web portal to all federal, state and local government web resources and services.